createdAt,value
2019-04-05T00:00:33.916Z,77.52
2019-04-05T00:03:02.820Z,77.88
2019-04-05T00:05:30.598Z,77.66
2019-04-05T00:07:58.412Z,78.75
2019-04-05T00:10:26.154Z,78.92
2019-04-05T00:12:54.206Z,78.53
2019-04-05T00:15:21.931Z,78.17
2019-04-05T00:17:49.702Z,78.11
2019-04-05T00:20:17.419Z,77.34
2019-04-05T00:22:45.165Z,77.74
2019-04-05T00:25:12.922Z,77.90
2019-04-05T00:27:40.684Z,78.52
2019-04-05T00:30:08.809Z,78.32
2019-04-05T00:32:36.575Z,78.91
2019-04-05T00:35:04.634Z,78.81
2019-04-05T00:37:32.379Z,78.51
2019-04-05T00:40:00.102Z,77.50
2019-04-05T00:42:27.859Z,78.02
2019-04-05T00:44:55.580Z,76.99
2019-04-05T00:47:23.427Z,77.16
2019-04-05T00:49:51.142Z,77.43
2019-04-05T00:52:18.902Z,76.86
2019-04-05T00:54:46.626Z,76.57
2019-04-05T00:57:14.407Z,75.88
2019-04-05T00:59:42.135Z,75.95
2019-04-05T01:02:09.856Z,75.73
2019-04-05T01:04:37.625Z,75.96
2019-04-05T01:07:05.579Z,75.99
2019-04-05T01:09:33.361Z,75.60
2019-04-05T01:12:01.618Z,76.10
2019-04-05T01:14:29.959Z,75.93
2019-04-05T01:16:57.803Z,75.63
2019-04-05T01:19:31.479Z,75.30
2019-04-05T01:22:04.979Z,75.86
2019-04-05T01:24:33.459Z,76.22
2019-04-05T01:27:02.948Z,76.41
2019-04-05T01:29:30.695Z,76.26
2019-04-05T01:31:58.412Z,76.16
2019-04-05T01:34:26.163Z,76.43
2019-04-05T01:36:54.105Z,75.87
2019-04-05T01:39:21.851Z,76.47
2019-04-05T01:41:49.995Z,76.26
2019-04-05T01:44:18.148Z,76.18
2019-04-05T01:46:45.904Z,76.15
2019-04-05T01:49:13.666Z,76.04
2019-04-05T01:51:41.870Z,76.30
2019-04-05T01:54:09.728Z,76.32
2019-04-05T01:56:37.470Z,76.56
2019-04-05T01:59:05.200Z,76.59
2019-04-05T02:01:32.930Z,76.22
2019-04-05T02:04:00.684Z,76.09
2019-04-05T02:06:28.820Z,75.60
2019-04-05T02:08:56.677Z,75.65
2019-04-05T02:11:24.501Z,76.45
2019-04-05T02:13:52.451Z,76.15
2019-04-05T02:16:20.190Z,75.94
2019-04-05T02:18:47.945Z,76.00
2019-04-05T02:21:15.680Z,75.70
2019-04-05T02:23:43.525Z,75.33
2019-04-05T02:26:11.378Z,75.89
2019-04-05T02:28:39.135Z,75.55
2019-04-05T02:31:06.905Z,75.07
2019-04-05T02:33:34.641Z,75.20
2019-04-05T02:36:02.384Z,75.04
2019-04-05T02:38:30.101Z,75.14
2019-04-05T02:41:00.272Z,75.47
2019-04-05T02:43:32.882Z,75.71
2019-04-05T02:46:02.704Z,75.37
2019-04-05T02:48:35.947Z,75.24
2019-04-05T02:51:05.780Z,75.62
2019-04-05T02:53:35.718Z,75.83
2019-04-05T02:56:05.319Z,75.96
2019-04-05T02:58:35.344Z,76.55
2019-04-05T03:01:03.179Z,76.50
2019-04-05T03:03:31.018Z,76.50
2019-04-05T03:05:58.757Z,76.08
2019-04-05T03:08:26.898Z,75.64
2019-04-05T03:11:10.409Z,76.19
2019-04-05T03:13:47.812Z,76.10
2019-04-05T03:16:38.503Z,76.34
2019-04-05T03:19:05.513Z,76.14
2019-04-05T03:21:38.361Z,76.28
2019-04-05T03:24:11.598Z,76.41
2019-04-05T03:26:45.354Z,76.93
2019-04-05T03:29:13.398Z,76.71
2019-04-05T03:31:41.426Z,77.44
2019-04-05T03:34:09.589Z,77.31
2019-04-05T03:36:38.358Z,78.38
2019-04-05T03:39:07.039Z,79.42
2019-04-05T03:41:35.427Z,79.52
2019-04-05T03:44:03.457Z,79.60
2019-04-05T03:46:32.117Z,80.28
2019-04-05T03:49:00.190Z,79.88
2019-04-05T03:51:28.118Z,79.49
2019-04-05T03:53:55.970Z,78.71
2019-04-05T03:56:24.155Z,78.95
2019-04-05T03:58:51.954Z,80.01
2019-04-05T04:01:19.728Z,80.22
2019-04-05T04:03:47.542Z,81.12
2019-04-05T04:06:15.460Z,80.11
2019-04-05T04:08:43.360Z,80.83
2019-04-05T04:11:11.278Z,81.42
2019-04-05T04:13:39.327Z,81.98
2019-04-05T04:16:07.168Z,81.63
2019-04-05T04:18:35.296Z,80.63
2019-04-05T04:21:31.689Z,80.75
2019-04-05T04:23:59.518Z,82.07
2019-04-05T04:26:27.380Z,82.38
2019-04-05T04:28:56.118Z,82.99
2019-04-05T04:31:24.051Z,83.39
2019-04-05T04:33:52.298Z,84.08
2019-04-05T04:36:20.883Z,83.22
2019-04-05T04:38:49.539Z,83.36
2019-04-05T04:41:17.380Z,83.31
2019-04-05T04:43:45.128Z,83.17
2019-04-05T04:46:12.900Z,83.21
2019-04-05T04:48:41.510Z,83.87
2019-04-05T04:51:10.141Z,84.03
2019-04-05T04:53:38.393Z,83.94
2019-04-05T04:56:06.577Z,84.87
2019-04-05T04:58:34.615Z,84.65
2019-04-05T05:01:03.055Z,83.72
2019-04-05T05:03:31.097Z,83.88
2019-04-05T05:05:58.921Z,84.76
2019-04-05T05:08:26.782Z,84.41
2019-04-05T05:10:54.805Z,84.90
2019-04-05T05:13:22.864Z,85.00
2019-04-05T05:15:50.730Z,85.17
2019-04-05T05:18:18.803Z,84.62
2019-04-05T05:20:46.651Z,85.02
2019-04-05T05:23:14.512Z,85.77
2019-04-05T05:25:42.465Z,84.57
2019-04-05T05:28:10.428Z,84.22
2019-04-05T05:30:38.169Z,84.89
2019-04-05T05:33:05.932Z,84.90
2019-04-05T05:35:33.830Z,84.08
2019-04-05T05:38:01.926Z,84.70
2019-04-05T05:40:35.027Z,84.90
2019-04-05T05:42:59.311Z,85.67
2019-04-05T05:45:27.024Z,84.86
2019-04-05T05:47:54.947Z,84.54
2019-04-05T05:50:22.680Z,84.17
2019-04-05T05:52:51.060Z,84.89
2019-04-05T05:55:18.896Z,84.89
2019-04-05T05:57:46.645Z,85.56
2019-04-05T06:00:19.039Z,85.82
2019-04-05T06:02:48.410Z,87.17
2019-04-05T06:05:16.424Z,87.72
2019-04-05T06:07:45.342Z,86.96
2019-04-05T06:10:13.108Z,85.82
2019-04-05T06:12:40.838Z,86.07
2019-04-05T06:15:09.134Z,86.59
2019-04-05T06:17:36.854Z,87.31
2019-04-05T06:20:06.232Z,87.57
2019-04-05T06:22:33.969Z,86.60
2019-04-05T06:25:01.737Z,87.05
2019-04-05T06:27:30.294Z,86.78
2019-04-05T06:29:58.050Z,86.76
2019-04-05T06:32:25.826Z,86.69
2019-04-05T06:34:56.420Z,85.86
2019-04-05T06:37:24.186Z,86.16
2019-04-05T06:39:51.907Z,87.03
2019-04-05T06:42:19.627Z,87.38
2019-04-05T06:44:47.407Z,86.35
2019-04-05T06:47:15.309Z,85.48
2019-04-05T06:49:43.141Z,86.08
2019-04-05T06:52:10.959Z,87.05
2019-04-05T06:54:38.711Z,86.86
2019-04-05T06:57:06.473Z,87.13
2019-04-05T06:59:34.447Z,87.31
2019-04-05T07:02:02.188Z,87.12
2019-04-05T07:04:31.153Z,86.15
2019-04-05T07:06:59.164Z,84.57
2019-04-05T07:09:26.903Z,85.02
2019-04-05T07:11:54.661Z,83.89
2019-04-05T07:14:22.422Z,84.63
2019-04-05T07:16:50.203Z,85.78
2019-04-05T07:19:17.943Z,86.10
2019-04-05T07:21:45.711Z,86.02
2019-04-05T07:24:13.459Z,85.87
2019-04-05T07:26:41.191Z,85.47
2019-04-05T07:29:08.952Z,83.92
2019-04-05T07:31:36.721Z,83.45
2019-04-05T07:34:04.840Z,82.70
2019-04-05T07:36:32.603Z,82.17
2019-04-05T07:39:00.448Z,81.66
2019-04-05T07:41:28.497Z,81.59
2019-04-05T07:44:02.605Z,80.92
2019-04-05T07:46:30.603Z,81.10
2019-04-05T07:48:58.331Z,81.08
2019-04-05T07:51:26.101Z,80.14
2019-04-05T07:53:53.871Z,79.59
2019-04-05T07:56:22.440Z,78.96
2019-04-05T07:58:50.242Z,78.87
2019-04-05T08:01:18.034Z,79.08
2019-04-05T08:03:46.630Z,78.69
2019-04-05T08:06:15.128Z,78.52
2019-04-05T08:09:02.404Z,77.89
2019-04-05T08:11:30.616Z,78.40
2019-04-05T08:14:01.166Z,79.13
2019-04-05T08:16:29.010Z,79.17
2019-04-05T08:18:58.322Z,78.57
2019-04-05T08:21:26.201Z,79.11
2019-04-05T08:23:54.036Z,78.70
2019-04-05T08:26:21.895Z,77.88
2019-04-05T08:28:49.654Z,78.05
2019-04-05T08:31:17.404Z,76.54
2019-04-05T08:33:45.209Z,76.64
2019-04-05T08:36:13.062Z,75.19
2019-04-05T08:38:40.805Z,75.24
2019-04-05T08:41:08.598Z,74.57
2019-04-05T08:43:36.348Z,74.80
2019-04-05T08:46:04.201Z,73.54
2019-04-05T08:48:31.955Z,72.38
2019-04-05T08:50:59.758Z,72.08
2019-04-05T08:53:27.527Z,71.64
2019-04-05T08:55:55.277Z,71.11
2019-04-05T08:58:32.813Z,70.05
2019-04-05T09:00:53.823Z,69.99
2019-04-05T09:03:21.616Z,68.58
2019-04-05T09:05:49.350Z,69.01
2019-04-05T09:08:17.130Z,67.13
2019-04-05T09:10:45.139Z,65.03
2019-04-05T09:13:12.889Z,64.14
2019-04-05T09:15:41.074Z,64.35
2019-04-05T09:18:09.770Z,64.96
2019-04-05T09:20:37.569Z,65.13
2019-04-05T09:23:05.348Z,64.81
2019-04-05T09:25:33.176Z,64.13
2019-04-05T09:28:00.962Z,64.24
2019-04-05T09:30:28.706Z,64.86
2019-04-05T09:32:56.598Z,64.86
2019-04-05T09:35:24.414Z,63.82
2019-04-05T09:37:52.545Z,62.76
2019-04-05T09:40:21.294Z,62.45
2019-04-05T09:42:49.397Z,62.03
2019-04-05T09:45:17.106Z,62.38
2019-04-05T09:47:44.912Z,61.81
2019-04-05T09:50:13.955Z,62.39
2019-04-05T09:52:41.732Z,62.31
2019-04-05T09:55:10.066Z,63.45
2019-04-05T09:57:37.907Z,64.30
2019-04-05T10:00:12.992Z,64.80
2019-04-05T10:02:41.861Z,63.99
2019-04-05T10:05:11.556Z,63.82
2019-04-05T10:07:53.803Z,65.31
2019-04-05T10:10:09.382Z,64.92
2019-04-05T10:12:37.152Z,64.86
2019-04-05T10:15:05.506Z,63.70
2019-04-05T10:17:33.261Z,63.13
2019-04-05T10:20:00.984Z,60.90
2019-04-05T10:22:28.987Z,59.92
2019-04-05T10:24:56.756Z,59.93
2019-04-05T10:27:24.575Z,59.49
2019-04-05T10:29:52.366Z,60.92
2019-04-05T10:32:20.109Z,60.79
2019-04-05T10:34:47.849Z,59.47
2019-04-05T10:37:15.626Z,57.98
2019-04-05T10:39:43.424Z,57.30
2019-04-05T10:42:29.808Z,57.89
2019-04-05T10:44:57.753Z,57.41
2019-04-05T10:47:25.515Z,57.42
2019-04-05T10:50:02.867Z,59.01
2019-04-05T10:52:22.973Z,59.21
2019-04-05T10:54:52.991Z,58.81
2019-04-05T10:57:20.863Z,58.07
2019-04-05T10:59:48.669Z,58.62
2019-04-05T11:02:16.385Z,58.09
2019-04-05T11:04:44.140Z,57.01
2019-04-05T11:07:11.904Z,57.02
2019-04-05T11:09:39.663Z,57.24
2019-04-05T11:12:08.740Z,57.61
2019-04-05T11:14:36.906Z,57.17
2019-04-05T11:17:05.152Z,56.49
2019-04-05T11:19:36.225Z,56.96
2019-04-05T11:22:03.102Z,55.94
2019-04-05T11:24:30.890Z,55.10
2019-04-05T11:26:58.906Z,53.75
2019-04-05T11:29:26.716Z,51.69
2019-04-05T11:31:57.447Z,50.22
2019-04-05T11:34:24.190Z,50.62
2019-04-05T11:36:52.377Z,48.19
2019-04-05T11:39:20.656Z,47.29
2019-04-05T11:41:52.190Z,44.40
2019-04-05T11:44:22.877Z,40.97
2019-04-05T11:46:50.608Z,34.76
2019-04-05T11:49:18.474Z,36.63
2019-04-05T11:51:47.903Z,37.63
2019-04-05T11:54:18.355Z,39.62
2019-04-05T11:56:45.284Z,38.74
2019-04-05T11:59:15.565Z,39.09
2019-04-05T12:02:12.604Z,36.47
2019-04-05T12:04:42.717Z,35.08
2019-04-05T12:07:10.007Z,36.68
2019-04-05T12:09:38.235Z,38.17
2019-04-05T12:12:06.004Z,38.06
2019-04-05T12:14:36.368Z,39.17
2019-04-05T12:17:05.438Z,40.06
2019-04-05T12:19:33.633Z,40.20
2019-04-05T12:22:04.536Z,40.99
2019-04-05T12:24:32.648Z,40.95
2019-04-05T12:27:02.622Z,36.91
2019-04-05T12:29:30.645Z,36.80
2019-04-05T12:31:58.407Z,33.18
2019-04-05T12:34:28.571Z,31.25
2019-04-05T12:36:55.835Z,33.42
2019-04-05T12:39:23.563Z,35.12
2019-04-05T12:41:51.299Z,36.66
2019-04-05T12:44:19.034Z,33.93
2019-04-05T12:46:46.789Z,32.99
2019-04-05T12:49:15.302Z,34.79
2019-04-05T12:51:45.578Z,36.09
2019-04-05T12:54:13.223Z,33.82
2019-04-05T12:56:40.973Z,31.27
2019-04-05T12:59:08.734Z,28.21
2019-04-05T13:01:36.932Z,26.93
2019-04-05T13:04:04.775Z,26.36
2019-04-05T13:06:32.541Z,27.49
2019-04-05T13:09:00.414Z,29.04
2019-04-05T13:11:28.304Z,32.11
2019-04-05T13:13:57.030Z,34.21
2019-04-05T13:16:24.956Z,35.96
2019-04-05T13:18:52.756Z,36.69
2019-04-05T13:21:20.586Z,34.47
2019-04-05T13:23:48.372Z,32.34
2019-04-05T13:26:16.162Z,30.77
2019-04-05T13:28:43.936Z,30.11
2019-04-05T13:31:11.708Z,27.70
2019-04-05T13:33:39.469Z,25.35
2019-04-05T13:36:08.583Z,25.92
2019-04-05T13:38:36.426Z,25.83
2019-04-05T13:41:04.244Z,28.18
2019-04-05T13:43:32.752Z,32.06
2019-04-05T13:46:00.582Z,35.89
2019-04-05T13:48:28.486Z,40.44
2019-04-05T13:50:56.265Z,39.39
2019-04-05T13:53:24.075Z,35.46
2019-04-05T13:55:51.808Z,33.68
2019-04-05T13:58:19.573Z,32.46
2019-04-05T14:00:48.750Z,31.46
2019-04-05T14:03:20.159Z,31.81
2019-04-05T14:05:46.736Z,31.88
2019-04-05T14:08:14.522Z,31.54
2019-04-05T14:10:42.286Z,30.83
2019-04-05T14:13:10.484Z,31.71
2019-04-05T14:15:41.819Z,31.91
2019-04-05T14:18:07.889Z,30.93
2019-04-05T14:20:35.646Z,30.75
2019-04-05T14:23:03.511Z,32.19
2019-04-05T14:25:31.319Z,33.50
2019-04-05T14:27:59.115Z,33.44
2019-04-05T14:30:26.870Z,34.17
2019-04-05T14:32:55.714Z,35.20
2019-04-05T14:35:25.244Z,35.16
2019-04-05T14:37:54.527Z,34.94
2019-04-05T14:40:22.929Z,33.92
2019-04-05T14:42:50.785Z,33.32
2019-04-05T14:45:18.664Z,34.13
2019-04-05T14:47:46.442Z,35.00
2019-04-05T14:50:16.151Z,36.76
2019-04-05T14:52:44.139Z,38.09
2019-04-05T14:55:11.903Z,39.58
2019-04-05T14:57:39.677Z,42.81
2019-04-05T15:00:08.502Z,43.79
2019-04-05T15:02:36.295Z,44.23
2019-04-05T15:05:04.949Z,45.07
2019-04-05T15:07:32.702Z,44.79
2019-04-05T15:10:03.486Z,44.88
2019-04-05T15:12:30.118Z,45.05
2019-04-05T15:14:57.876Z,45.61
2019-04-05T15:17:25.644Z,45.98
2019-04-05T15:19:53.425Z,46.73
2019-04-05T15:22:21.192Z,47.27
2019-04-05T15:24:48.985Z,48.09
2019-04-05T15:27:16.732Z,49.17
2019-04-05T15:29:44.484Z,48.84
2019-04-05T15:32:12.264Z,48.59
2019-04-05T15:34:40.010Z,48.99
2019-04-05T15:37:07.758Z,49.88
2019-04-05T15:39:35.549Z,49.68
2019-04-05T15:42:03.327Z,49.32
2019-04-05T15:44:31.131Z,50.18
2019-04-05T15:46:58.889Z,50.68
2019-04-05T15:49:26.674Z,51.30
2019-04-05T15:51:55.135Z,51.75
2019-04-05T15:54:24.146Z,52.17
2019-04-05T15:56:51.891Z,52.30
2019-04-05T15:59:21.821Z,52.77
2019-04-05T16:01:49.296Z,52.95
2019-04-05T16:04:17.102Z,53.95
2019-04-05T16:06:44.899Z,54.24
2019-04-05T16:09:16.524Z,54.93
2019-04-05T16:11:44.286Z,54.83
2019-04-05T16:14:12.035Z,55.31
2019-04-05T16:16:39.803Z,55.51
2019-04-05T16:19:07.594Z,56.28
2019-04-05T16:21:35.372Z,57.59
2019-04-05T16:24:03.232Z,58.79
2019-04-05T16:26:31.093Z,58.87
2019-04-05T16:28:58.880Z,59.28
2019-04-05T16:31:26.663Z,59.72
2019-04-05T16:33:54.627Z,59.96
2019-04-05T16:36:22.415Z,60.41
2019-04-05T16:38:50.247Z,60.45
2019-04-05T16:41:18.003Z,60.21
2019-04-05T16:43:45.765Z,60.60
2019-04-05T16:46:13.541Z,60.98
2019-04-05T16:48:41.319Z,61.10
2019-04-05T16:51:09.119Z,61.53
2019-04-05T16:53:38.762Z,61.99
2019-04-05T16:56:06.570Z,62.30
2019-04-05T16:58:34.280Z,62.63
2019-04-05T17:01:02.055Z,62.97
2019-04-05T17:03:29.802Z,63.36
2019-04-05T17:05:57.552Z,63.66
2019-04-05T17:08:25.317Z,64.24
2019-04-05T17:10:53.364Z,64.60
2019-04-05T17:13:21.202Z,64.63
2019-04-05T17:15:49.196Z,64.72
2019-04-05T17:18:16.935Z,64.63
2019-04-05T17:20:44.734Z,64.62
2019-04-05T17:23:12.480Z,64.92
2019-04-05T17:25:40.230Z,65.43
2019-04-05T17:28:07.976Z,65.81
2019-04-05T17:30:36.375Z,65.92
2019-04-05T17:33:04.310Z,66.56
2019-04-05T17:35:32.076Z,67.19
2019-04-05T17:37:59.860Z,67.55
2019-04-05T17:40:27.608Z,67.73
2019-04-05T17:42:55.590Z,68.50
2019-04-05T17:45:23.341Z,68.94
2019-04-05T17:47:51.135Z,69.09
2019-04-05T17:50:31.170Z,69.81
2019-04-05T17:53:11.511Z,70.05
2019-04-05T17:55:28.572Z,70.85
2019-04-05T17:57:57.701Z,70.98
2019-04-05T18:00:25.695Z,71.33
2019-04-05T18:02:54.515Z,71.80
2019-04-05T18:05:22.320Z,72.17
2019-04-05T18:07:50.107Z,72.51
2019-04-05T18:10:18.082Z,72.88
2019-04-05T18:12:45.834Z,72.79
2019-04-05T18:15:13.668Z,73.15
2019-04-05T18:17:42.000Z,73.05
2019-04-05T18:20:10.286Z,73.49
2019-04-05T18:22:38.115Z,73.58
2019-04-05T18:25:06.134Z,73.76
2019-04-05T18:27:33.917Z,74.04
2019-04-05T18:30:02.211Z,74.11
2019-04-05T18:32:31.367Z,74.27
2019-04-05T18:34:59.294Z,74.49
2019-04-05T18:37:27.412Z,74.72
2019-04-05T18:39:55.206Z,74.90
2019-04-05T18:42:23.019Z,75.10
2019-04-05T18:44:50.869Z,74.97
2019-04-05T18:47:18.678Z,75.05
2019-04-05T18:49:46.594Z,75.33
2019-04-05T18:52:14.338Z,75.25
2019-04-05T18:54:43.267Z,75.11
2019-04-05T18:57:14.012Z,74.96
2019-04-05T18:59:41.082Z,75.07
2019-04-05T19:02:08.861Z,75.38
2019-04-05T19:04:36.662Z,75.48
2019-04-05T19:07:04.528Z,75.33
2019-04-05T19:09:32.593Z,75.28
2019-04-05T19:12:00.386Z,75.37
2019-04-05T19:14:28.182Z,75.32
2019-04-05T19:16:59.069Z,75.77
2019-04-05T19:19:25.757Z,75.72
2019-04-05T19:21:53.817Z,76.09
2019-04-05T19:24:21.819Z,76.50
2019-04-05T19:26:49.636Z,76.50
2019-04-05T19:29:17.438Z,76.78
2019-04-05T19:49:14.743Z,79.63
2019-04-05T19:51:42.498Z,80.08
2019-04-05T19:54:10.354Z,80.12
2019-04-05T19:56:38.214Z,80.80
2019-04-05T19:59:06.327Z,81.29
2019-04-05T20:01:34.085Z,81.60
2019-04-05T20:04:01.864Z,81.77
2019-04-05T20:06:29.703Z,82.09
2019-04-05T20:08:57.515Z,82.07
2019-04-05T20:11:25.349Z,82.49
2019-04-05T20:13:54.289Z,82.87
2019-04-05T20:16:23.167Z,83.01
2019-04-05T20:18:51.018Z,83.31
2019-04-05T20:21:18.801Z,83.47
2019-04-05T20:23:47.761Z,83.46
2019-04-05T20:26:15.843Z,83.83
2019-04-05T20:28:43.602Z,84.21
2019-04-05T20:31:11.380Z,84.31
2019-04-05T20:33:39.149Z,84.36
2019-04-05T20:36:06.917Z,84.88
2019-04-05T20:38:34.683Z,85.21
2019-04-05T20:41:02.583Z,85.45
2019-04-05T20:43:30.326Z,85.57
2019-04-05T20:45:58.117Z,85.37
2019-04-05T20:48:25.845Z,85.71
2019-04-05T20:50:53.629Z,86.08
2019-04-05T20:53:21.387Z,86.01
2019-04-05T20:55:50.507Z,86.09
2019-04-05T20:58:18.295Z,85.87
2019-04-05T21:00:46.065Z,86.33
2019-04-05T21:03:13.844Z,86.55
2019-04-05T21:05:41.900Z,86.87
2019-04-05T21:08:09.640Z,86.96
2019-04-05T21:10:37.383Z,86.89
2019-04-05T21:13:05.141Z,86.99
2019-04-05T21:15:32.892Z,87.05
2019-04-05T21:18:00.633Z,87.39
2019-04-05T21:20:29.490Z,87.48
2019-04-05T21:22:57.236Z,87.34
2019-04-05T21:25:25.006Z,87.28
2019-04-05T21:27:52.768Z,87.71
2019-04-05T21:30:20.503Z,87.93
2019-04-05T21:32:48.261Z,87.97
2019-04-05T21:35:16.026Z,88.06
2019-04-05T21:37:43.783Z,88.29
2019-04-05T21:40:11.919Z,88.34
2019-04-05T21:42:40.019Z,88.03
2019-04-05T21:45:08.189Z,88.26
2019-04-05T21:47:35.921Z,88.48
2019-04-05T21:50:04.295Z,88.41
2019-04-05T21:52:32.378Z,88.28
2019-04-05T21:55:00.107Z,87.90
2019-04-05T21:57:27.893Z,88.11
2019-04-05T21:59:55.623Z,88.17
2019-04-05T22:02:23.421Z,87.76
2019-04-05T22:04:51.370Z,88.16
2019-04-05T22:07:19.269Z,88.25
2019-04-05T22:09:47.113Z,88.39
2019-04-05T22:12:14.962Z,88.74
2019-04-05T22:14:42.705Z,88.68
2019-04-05T22:17:10.491Z,88.93
2019-04-05T22:19:38.235Z,88.90
2019-04-05T22:22:05.986Z,88.65
2019-04-05T22:24:33.813Z,88.81
2019-04-05T22:27:01.554Z,88.54
2019-04-05T22:29:29.289Z,87.83
2019-04-05T22:31:57.055Z,86.71
2019-04-05T22:34:24.795Z,85.92
2019-04-05T22:36:52.557Z,86.79
2019-04-05T22:39:21.531Z,87.12
2019-04-05T22:41:49.446Z,86.89
2019-04-05T22:44:17.250Z,86.99
2019-04-05T22:46:45.013Z,87.30
2019-04-05T22:49:12.765Z,87.30
2019-04-05T22:51:40.529Z,87.13
2019-04-05T22:54:08.294Z,86.74
2019-04-05T22:56:36.087Z,86.09
2019-04-05T22:59:03.808Z,85.56
2019-04-05T23:01:31.562Z,85.33
2019-04-05T23:03:59.313Z,86.24
2019-04-05T23:06:27.644Z,86.57
2019-04-05T23:08:55.375Z,86.97
2019-04-05T23:11:23.380Z,87.57
2019-04-05T23:13:51.126Z,87.66
2019-04-05T23:16:18.895Z,87.63
2019-04-05T23:18:46.606Z,87.96
2019-04-05T23:21:14.398Z,88.27
2019-04-05T23:23:42.182Z,88.76
2019-04-05T23:26:09.958Z,89.58
2019-04-05T23:28:39.851Z,89.31
2019-04-05T23:31:07.672Z,88.99
2019-04-05T23:33:35.802Z,89.16
2019-04-05T23:36:03.728Z,89.03
2019-04-05T23:38:31.826Z,89.70
2019-04-05T23:40:59.561Z,89.93
2019-04-05T23:43:27.338Z,90.14
2019-04-05T23:45:55.272Z,90.88
2019-04-05T23:48:23.066Z,90.47
2019-04-05T23:50:50.812Z,90.21
2019-04-05T23:53:18.757Z,89.44
2019-04-05T23:55:46.489Z,89.48
2019-04-05T23:58:14.253Z,89.25
